Maersk Raleigh — MBFI9 — position and weather

sailwx.info

Track history (hours):
 
Tides and Currents Weather Stations Pressure Air Temp Water Temp Dewpoint Dewpoint Depression Visibility Wind Speed Wind Dir Waves Ship Positions

Maersk Raleigh

Last reported at 2017-Sep-18 10:27 UTC. Time now 2017-Sep-21 16:17 UTC.
Position N 55°35' W 004°51'.

Length 172 m; draft 8.8 m.

Type: Ship. MMSI: 232008765.

Date/timePositionNaut miles runAvg speedWind from/ knotsBaromVisibWave heightAir tempDewpointWater temp
2017-Sep-18 10:27N 55°35' W 004°51'612.7
2017-Sep-18 09:59N 55°39' W 004°58'612.3
2017-Sep-18 09:30N 55°45' W 004°59'8 0.2
2017-Sep-16 08:54N 55°53' W 005°03'4 9.3
2017-Sep-16 08:28N 55°50' W 004°58'1 0.2
2017-Sep-16 00:22N 55°49' W 004°56'0 0.0
2017-Sep-15 23:52N 55°49' W 004°56'0 0.0
2017-Sep-15 23:25N 55°49' W 004°56'0 0.0
2017-Sep-15 22:55N 55°49' W 004°56'0 0.0
2017-Sep-15 22:25N 55°49' W 004°56'0 0.0
2017-Sep-15 21:55N 55°49' W 004°56'0 0.0
2017-Sep-15 21:25N 55°49' W 004°56'0 0.0
2017-Sep-15 20:07N 55°49' W 004°56'0 0.1
2017-Sep-15 19:55N 55°49' W 004°56'0 0.0
2017-Sep-15 17:13N 55°49' W 004°56'0 0.1
2017-Sep-15 16:52N 55°49' W 004°56'0 0.0
2017-Sep-15 16:28N 55°49' W 004°56'0 0.0
2017-Sep-15 15:55N 55°49' W 004°56'0 0.0
2017-Sep-15 15:10N 55°49' W 004°56'0 0.0
2017-Sep-15 14:58N 55°49' W 004°56'0 0.0
2017-Sep-15 14:25N 55°49' W 004°56'0 0.0
2017-Sep-15 13:58N 55°49' W 004°56'0 0.0
2017-Sep-15 11:24N 55°49' W 004°56'0 0.0
2017-Sep-15 10:57N 55°49' W 004°56'0 0.0
2017-Sep-15 10:15N 55°49' W 004°56'0 0.6
2017-Sep-15 10:00N 55°50' W 004°56'  
2017-Sep-11 05:39N 55°50' W 004°57'212.2
2017-Sep-11 05:30N 55°48' W 004°57'510.1
2017-Sep-11 05:00N 55°43' W 004°59'5 9.3
2017-Sep-11 04:30N 55°39' W 005°03'4 8.0
2017-Sep-11 04:00N 55°36' W 005°07'0 0.3
2017-Sep-11 03:28N 55°36' W 005°07'0 0.0
2017-Sep-10 23:34N 55°36' W 005°07'0 0.0
2017-Sep-10 00:10N 55°36' W 005°07'0 0.0
2017-Sep-09 23:55N 55°36' W 005°07'0 0.0
2017-Sep-09 23:28N 55°36' W 005°07'0 0.0
2017-Sep-09 20:03N 55°36' W 005°07'0 0.0
2017-Sep-09 20:00N 55°36' W 005°07'0 0.0
2017-Sep-09 18:18N 55°36' W 005°07'0 0.0
2017-Sep-09 17:48N 55°36' W 005°07'0 0.0
2017-Sep-09 17:18N 55°36' W 005°07'0 0.0
2017-Sep-09 16:48N 55°35' W 005°07'0 0.0
2017-Sep-09 16:18N 55°35' W 005°07'0 0.0
2017-Sep-09 15:18N 55°35' W 005°07'0 0.0
2017-Sep-09 15:00N 55°35' W 005°07'0 0.1
2017-Sep-09 14:21N 55°35' W 005°07'0 0.0
2017-Sep-09 12:03N 55°35' W 005°07'0 0.1
2017-Sep-09 11:51N 55°35' W 005°07'0 0.0
2017-Sep-09 08:44N 55°36' W 005°07'0 1.6
2017-Sep-09 08:30N 55°36' W 005°06'2 4.9
2017-Sep-09 08:00N 55°36' W 005°02'510.1
2017-Sep-09 07:30N 55°32' W 004°56'3711.2
2017-Sep-09 04:12N 55°00' W 005°30'211.8
2017-Sep-09 04:00N 54°58' W 005°31'5 9.9
2017-Sep-09 03:30N 55°02' W 005°27'711.0
2017-Sep-09 02:53N 55°08' W 005°20'611.6
2017-Sep-09 02:23N 55°02' W 005°21'512.9
2017-Sep-09 02:00N 54°57' W 005°22'713.2
2017-Sep-09 01:30N 54°51' W 005°19'612.8
2017-Sep-09 01:00N 54°45' W 005°15'612.2
2017-Sep-09 00:30N 54°40' W 005°10'611.3
2017-Sep-09 00:01N 54°34' W 005°07'712.2
2017-Sep-08 23:28N 54°28' W 005°08'511.5
2017-Sep-08 23:00N 54°22' W 005°08'611.8
2017-Sep-08 22:30N 54°17' W 005°09'611.6
2017-Sep-08 22:00N 54°11' W 005°10'  
Track history (hours):
 
Tides and Currents Weather Stations Pressure Air Temp Water Temp Dewpoint Dewpoint Depression Visibility Wind Speed Wind Dir Waves Ship Positions

Maersk Raleigh

Last reported at 2017-Sep-18 10:27 UTC. Time now 2017-Sep-21 16:17 UTC.
Position N 55°35' W 004°51'.

Length 172 m; draft 8.8 m.

Type: Ship. MMSI: 232008765.

Date/timePositionNaut miles runAvg speedWind from/ knotsBaromVisibWave heightAir tempDewpointWater temp
2017-Sep-18 10:27N 55°35' W 004°51'612.7
2017-Sep-18 09:59N 55°39' W 004°58'612.3
2017-Sep-18 09:30N 55°45' W 004°59'8 0.2
2017-Sep-16 08:54N 55°53' W 005°03'4 9.3
2017-Sep-16 08:28N 55°50' W 004°58'1 0.2
2017-Sep-16 00:22N 55°49' W 004°56'0 0.0
2017-Sep-15 23:52N 55°49' W 004°56'0 0.0
2017-Sep-15 23:25N 55°49' W 004°56'0 0.0
2017-Sep-15 22:55N 55°49' W 004°56'0 0.0
2017-Sep-15 22:25N 55°49' W 004°56'0 0.0
2017-Sep-15 21:55N 55°49' W 004°56'0 0.0
2017-Sep-15 21:25N 55°49' W 004°56'0 0.0
2017-Sep-15 20:07N 55°49' W 004°56'0 0.1
2017-Sep-15 19:55N 55°49' W 004°56'0 0.0
2017-Sep-15 17:13N 55°49' W 004°56'0 0.1
2017-Sep-15 16:52N 55°49' W 004°56'0 0.0
2017-Sep-15 16:28N 55°49' W 004°56'0 0.0
2017-Sep-15 15:55N 55°49' W 004°56'0 0.0
2017-Sep-15 15:10N 55°49' W 004°56'0 0.0
2017-Sep-15 14:58N 55°49' W 004°56'0 0.0
2017-Sep-15 14:25N 55°49' W 004°56'0 0.0
2017-Sep-15 13:58N 55°49' W 004°56'0 0.0
2017-Sep-15 11:24N 55°49' W 004°56'0 0.0
2017-Sep-15 10:57N 55°49' W 004°56'0 0.0
2017-Sep-15 10:15N 55°49' W 004°56'0 0.6
2017-Sep-15 10:00N 55°50' W 004°56'  
2017-Sep-11 05:39N 55°50' W 004°57'212.2
2017-Sep-11 05:30N 55°48' W 004°57'510.1
2017-Sep-11 05:00N 55°43' W 004°59'5 9.3
2017-Sep-11 04:30N 55°39' W 005°03'4 8.0
2017-Sep-11 04:00N 55°36' W 005°07'0 0.3
2017-Sep-11 03:28N 55°36' W 005°07'0 0.0
2017-Sep-10 23:34N 55°36' W 005°07'0 0.0
2017-Sep-10 00:10N 55°36' W 005°07'0 0.0
2017-Sep-09 23:55N 55°36' W 005°07'0 0.0
2017-Sep-09 23:28N 55°36' W 005°07'0 0.0
2017-Sep-09 20:03N 55°36' W 005°07'0 0.0
2017-Sep-09 20:00N 55°36' W 005°07'0 0.0
2017-Sep-09 18:18N 55°36' W 005°07'0 0.0
2017-Sep-09 17:48N 55°36' W 005°07'0 0.0
2017-Sep-09 17:18N 55°36' W 005°07'0 0.0
2017-Sep-09 16:48N 55°35' W 005°07'0 0.0
2017-Sep-09 16:18N 55°35' W 005°07'0 0.0
2017-Sep-09 15:18N 55°35' W 005°07'0 0.0
2017-Sep-09 15:00N 55°35' W 005°07'0 0.1
2017-Sep-09 14:21N 55°35' W 005°07'0 0.0
2017-Sep-09 12:03N 55°35' W 005°07'0 0.1
2017-Sep-09 11:51N 55°35' W 005°07'0 0.0
2017-Sep-09 08:44N 55°36' W 005°07'0 1.6
2017-Sep-09 08:30N 55°36' W 005°06'2 4.9
2017-Sep-09 08:00N 55°36' W 005°02'510.1
2017-Sep-09 07:30N 55°32' W 004°56'3711.2
2017-Sep-09 04:12N 55°00' W 005°30'211.8
2017-Sep-09 04:00N 54°58' W 005°31'5 9.9
2017-Sep-09 03:30N 55°02' W 005°27'711.0
2017-Sep-09 02:53N 55°08' W 005°20'611.6
2017-Sep-09 02:23N 55°02' W 005°21'512.9
2017-Sep-09 02:00N 54°57' W 005°22'713.2
2017-Sep-09 01:30N 54°51' W 005°19'612.8
2017-Sep-09 01:00N 54°45' W 005°15'612.2
2017-Sep-09 00:30N 54°40' W 005°10'611.3
2017-Sep-09 00:01N 54°34' W 005°07'712.2
2017-Sep-08 23:28N 54°28' W 005°08'511.5
2017-Sep-08 23:00N 54°22' W 005°08'611.8
2017-Sep-08 22:30N 54°17' W 005°09'611.6
2017-Sep-08 22:00N 54°11' W 005°10'  

Dump ship's entire track history